Latest Weather Observations for Maroochydore

IDQ60901

Issued at 11:31 pm EST Saturday 3 December 2016 (issued every 10 minutes, with the page automatically refreshed every 10 minutes)

About weather observations | Map of Brisbane area stations | Latest observations for Brisbane area | Other Formats
Station Details ID: 040861 Name: SUNSHINE COAST AIRPORT Lat: -26.60 Lon: 153.09 Height: 3.3 m
Data from the previous 72 hours. | See also: Recent months at Maroochydore
Date/Time
EST
Temp
°C
App
Temp
°C
Dew
Point
°C
Rel
Hum
%
Delta-T
°C
Wind Press
QNH
hPa
Press
MSL
hPa
Rain since
9am
mm
Dir  Spd
km/h
Gust
km/h
Spd
kts
Gust
kts
03/11:00pm 22.5 25.2 21.3 93 0.8 NW 9 13 5 7 1016.2 - 8.0
03/10:30pm 23.3 26.5 21.6 90 1.1 W 7 13 4 7 1017.1 - 8.0
03/10:00pm 23.2 25.8 22.0 93 0.8 SW 11 19 6 10 1016.8 - 8.0
03/09:30pm 23.3 22.1 22.3 94 0.7 N 32 43 17 23 1015.9 - 7.6
03/09:09pm 23.4 20.1 22.6 95 0.5 NNE 44 57 24 31 1015.4 - 7.2
03/09:00pm 23.4 21.1 22.7 96 0.5 NE 39 52 21 28 1015.9 1015.9 7.2
03/08:51pm 23.3 22.6 22.5 95 0.5 NNE 30 44 16 24 1016.5 - 7.0
03/08:35pm 23.3 24.5 22.5 95 0.5 NNE 20 26 11 14 1018.0 - 6.6
03/08:30pm 23.3 25.8 22.5 95 0.5 N 13 20 7 11 1018.2 - 6.6
03/08:00pm 23.4 23.8 22.4 94 0.7 E 24 32 13 17 1016.9 - 6.0
03/07:54pm 23.4 24.5 22.4 94 0.7 E 20 28 11 15 1017.4 - 5.8
03/07:47pm 22.9 23.2 21.5 92 0.9 SE 22 28 12 15 1018.0 - 5.6
03/07:30pm 23.8 22.8 21.9 89 1.3 S 30 44 16 24 1018.1 - 3.0
03/07:27pm 24.1 23.5 22.0 88 1.4 S 28 43 15 23 1018.1 - 2.4
03/07:05pm 24.6 25.4 21.7 84 1.9 SSW 20 24 11 13 1017.1 - 0.0
03/07:00pm 24.5 27.4 21.8 85 1.8 SSE 9 15 5 8 1015.1 - 0.0
03/06:58pm 24.5 27.4 21.8 85 1.8 SSE 9 15 5 8 1014.7 - 0.0
03/06:45pm 24.1 24.9 21.4 85 1.8 NNE 19 35 10 19 1012.7 - 0.0
03/06:30pm 24.1 22.4 21.4 85 1.8 N 32 43 17 23 1010.7 - 0.0
03/06:00pm 24.2 22.9 21.3 84 1.9 N 30 41 16 22 1010.7 1010.7 0.0
03/05:48pm 24.4 22.0 21.1 82 2.2 N 35 54 19 29 1010.0 - 0.0
03/05:30pm 24.9 23.2 21.4 81 2.3 N 32 43 17 23 1010.8 - 0.0
03/05:00pm 25.7 23.8 21.4 77 2.8 N 33 43 18 23 1010.7 - 0.0
03/04:30pm 26.2 24.4 21.6 76 3.1 NNE 33 44 18 24 1010.7 - 0.0
03/04:00pm 26.8 25.1 21.3 72 3.7 N 32 44 17 24 1010.7 - 0.0
03/03:30pm 27.3 25.7 21.6 71 3.8 N 32 41 17 22 1010.9 - 0.0
03/03:00pm 28.0 26.4 21.5 67 4.3 N 32 41 17 22 1011.3 1011.3 0.0
03/02:30pm 27.8 26.0 21.1 67 4.4 N 32 43 17 23 1011.9 - 0.0
03/02:00pm 27.8 25.9 21.3 67 4.3 N 33 44 18 24 1012.5 - 0.0
03/01:30pm 28.1 27.0 21.1 65 4.6 N 28 41 15 22 1013.0 - 0.0
03/01:00pm 28.4 26.9 21.7 67 4.5 NNE 32 41 17 22 1013.3 - 0.0
03/12:30pm 29.2 28.8 22.4 66 4.6 NNE 28 35 15 19 1013.7 - 0.0
03/12:00pm 28.3 27.2 21.8 68 4.4 NNE 30 37 16 20 1013.9 1013.9 0.0
03/11:30am 28.7 27.9 22.4 68 4.3 NNE 30 37 16 20 1014.1 - 0.0
03/11:00am 28.4 27.9 22.9 72 3.7 NNE 30 35 16 19 1014.5 - 0.0
03/10:30am 27.9 27.9 22.4 72 3.7 NNE 26 35 14 19 1014.8 - 0.0
03/10:00am 27.9 28.4 22.6 73 3.6 NNE 24 33 13 18 1015.0 - 0.0
03/09:30am 26.4 26.4 21.6 75 3.2 NNE 24 32 13 17 1015.3 - 0.0
03/09:00am 26.4 27.6 22.5 79 2.6 NNE 20 26 11 14 1015.4 1015.4 0.0
03/08:30am 25.9 27.3 21.8 78 2.7 NNE 17 20 9 11 1015.3 - 0.0
03/08:00am 26.1 28.4 21.3 75 3.2 N 11 19 6 10 1015.2 - 0.0
03/07:30am 25.3 27.0 21.0 77 2.8 NNW 13 19 7 10 1015.0 - 0.0
03/07:00am 25.5 26.9 21.0 76 3.0 N 15 20 8 11 1014.6 - 0.0
03/06:30am 25.0 26.8 21.1 79 2.6 NNW 13 19 7 10 1014.5 - 0.0
03/06:00am 24.6 26.2 20.7 79 2.5 N 13 22 7 12 1013.9 1013.9 0.0
03/05:30am 24.2 26.4 21.1 83 2.0 N 11 13 6 7 1013.5 - 0.0
03/05:00am 24.2 25.8 20.7 81 2.3 N 13 20 7 11 1013.1 - 0.0
03/04:45am 24.1 26.1 20.8 82 2.2 N 11 17 6 9 1013.0 - 0.0
03/04:30am 24.1 26.1 20.8 82 2.2 N 11 15 6 8 1012.8 - 0.0
03/04:00am 24.3 25.6 20.8 81 2.3 NNW 15 20 8 11 1012.4 - 0.0
03/03:30am 24.3 26.0 21.0 82 2.2 NNW 13 20 7 11 1012.3 - 0.0
03/03:00am 24.3 26.5 21.2 83 2.0 N 11 17 6 9 1012.1 1012.1 0.0
03/02:30am 24.2 26.6 21.5 85 1.8 N 11 15 6 8 1011.9 - 0.0
03/02:00am 24.2 26.3 21.7 86 1.7 N 13 17 7 9 1012.0 - 0.0
03/01:30am 24.2 26.3 21.7 86 1.7 NNW 13 20 7 11 1012.2 - 0.0
03/01:00am 24.1 26.3 21.8 87 1.5 NNW 13 19 7 10 1012.3 - 0.0
03/12:30am 23.7 26.1 21.6 88 1.4 NNW 11 19 6 10 1012.7 - 0.0
03/12:05am 23.4 25.3 21.3 88 1.4 N 13 17 7 9 1013.1 - 0.0
03/12:00am 23.3 25.1 21.2 88 1.4 N 13 19 7 10 1013.2 1013.2 0.0
 
Date/Time
EST
Temp
°C
App
Temp
°C
Dew
Point
°C
Rel
Hum
%
Delta-T
°C
Wind Press
QNH
hPa
Press
MSL
hPa
Rain since
9am
mm
Dir  Spd
km/h
Gust
km/h
Spd
kts
Gust
kts
02/11:30pm 23.8 24.6 21.3 86 1.6 N 19 26 10 14 1013.2 - 0.0
02/11:00pm 23.8 24.7 21.5 87 1.5 N 19 28 10 15 1013.3 - 0.0
02/10:30pm 23.7 24.9 21.4 87 1.5 N 17 24 9 13 1013.2 - 0.0
02/10:00pm 24.1 25.0 22.0 88 1.4 N 20 28 11 15 1013.0 - 0.0
02/09:30pm 23.9 25.4 22.0 89 1.3 N 17 20 9 11 1012.8 - 0.0
02/09:00pm 23.6 25.8 21.9 90 1.1 N 13 19 7 10 1012.5 1012.5 0.0
02/08:30pm 23.9 25.1 22.2 90 1.1 N 19 26 10 14 1012.0 - 0.0
02/08:00pm 24.1 24.5 22.4 90 1.1 N 24 33 13 18 1011.6 - 0.0
02/07:30pm 24.2 24.5 22.3 89 1.3 N 24 32 13 17 1011.3 - 0.0
02/07:00pm 24.2 24.8 22.1 88 1.4 N 22 30 12 16 1011.0 - 0.0
02/06:30pm 24.3 23.9 21.6 85 1.8 N 26 35 14 19 1010.7 - 0.0
02/06:00pm 24.7 24.6 21.4 82 2.2 N 24 33 13 18 1010.4 1010.4 0.0
02/05:30pm 25.3 24.1 21.6 80 2.5 N 30 39 16 21 1010.0 - 0.0
02/05:00pm 25.9 24.9 21.3 76 3.0 N 28 41 15 22 1009.7 - 0.0
02/04:30pm 26.3 25.1 21.5 75 3.2 N 30 43 16 23 1009.7 - 0.0
02/04:00pm 26.7 25.6 21.7 74 3.3 N 30 41 16 22 1009.6 - 0.0
02/03:30pm 27.1 25.6 21.8 73 3.5 N 32 41 17 22 1009.5 - 0.0
02/03:00pm 28.2 27.4 22.4 71 3.9 NNE 30 39 16 21 1009.6 1009.6 0.0
02/02:30pm 27.6 26.3 21.4 69 4.1 NNE 30 43 16 23 1009.8 - 0.0
02/02:00pm 27.6 25.8 21.6 70 4.0 NNE 33 44 18 24 1010.0 - 0.0
02/01:30pm 28.0 26.6 22.0 70 4.0 NNE 32 43 17 23 1010.2 - 0.0
02/01:00pm 28.0 26.4 21.8 69 4.2 NNE 33 43 18 23 1010.6 - 0.0
02/12:30pm 28.2 26.8 22.0 69 4.2 NNE 32 41 17 22 1010.8 - 0.0
02/12:00pm 28.3 27.0 22.1 69 4.2 NNE 32 41 17 22 1011.0 1011.0 0.0
02/11:30am 28.0 27.0 22.0 70 4.0 NNE 30 39 16 21 1011.3 - 0.0
02/11:00am 28.2 27.3 22.9 73 3.6 NNE 32 37 17 20 1011.5 - 0.0
02/10:30am 27.9 27.5 22.4 72 3.7 NNE 28 35 15 19 1011.9 - 0.0
02/10:00am 27.3 27.0 21.8 72 3.7 NE 26 33 14 18 1012.2 - 0.0
02/09:30am 27.3 27.1 21.3 69 4.0 NE 24 33 13 18 1012.3 - 0.0
02/09:00am 27.3 27.9 19.4 62 5.1 NNW 15 22 8 12 1012.3 1012.3 7.8
02/08:30am 26.6 27.4 20.7 70 3.9 NW 17 30 9 16 1012.3 - 7.8
02/08:00am 25.9 27.7 21.1 75 3.2 NNW 13 20 7 11 1012.5 - 7.8
02/07:30am 23.9 25.7 20.4 81 2.3 NW 11 17 6 9 1012.8 - 7.8
02/07:00am 23.4 25.7 20.7 85 1.8 N 9 15 5 8 1012.7 - 7.8
02/06:30am 22.2 24.2 20.7 91 1.0 NNW 11 13 6 7 1012.3 - 7.8
02/06:00am 21.0 23.1 20.2 95 0.5 NNW 9 11 5 6 1011.9 1011.9 7.8
02/05:30am 19.7 20.9 19.0 96 0.4 NW 11 13 6 7 1011.7 - 7.8
02/05:00am 18.9 20.1 18.2 96 0.4 N 9 13 5 7 1011.5 - 7.8
02/04:30am 19.0 20.3 18.5 97 0.3 N 9 13 5 7 1011.4 - 7.8
02/04:00am 18.2 19.5 17.6 96 0.4 N 7 13 4 7 1011.1 - 7.8
02/03:30am 18.6 19.7 18.1 97 0.3 NNW 9 11 5 6 1010.7 - 7.8
02/03:00am 17.6 18.3 17.0 96 0.4 NNW 9 11 5 6 1010.5 1010.5 7.8
02/02:30am 18.3 19.7 17.7 96 0.4 WNW 7 9 4 5 1010.4 - 7.8
02/02:00am 18.6 19.7 17.9 96 0.4 NW 9 11 5 6 1010.5 - 7.8
02/01:30am 18.7 19.8 17.9 95 0.5 WNW 9 11 5 6 1010.6 - 7.8
02/01:00am 19.1 20.7 18.3 95 0.5 N 7 9 4 5 1010.8 - 7.8
02/12:30am 19.0 19.8 18.2 95 0.5 NNW 11 11 6 6 1010.9 - 7.8
02/12:00am 18.6 21.2 17.4 93 0.7 CALM 0 0 0 0 1011.0 1011.0 7.8
 
Date/Time
EST
Temp
°C
App
Temp
°C
Dew
Point
°C
Rel
Hum
%
Delta-T
°C
Wind Press
QNH
hPa
Press
MSL
hPa
Rain since
9am
mm
Dir  Spd
km/h
Gust
km/h
Spd
kts
Gust
kts
01/11:30pm 18.9 20.4 17.7 93 0.7 NNW 6 9 3 5 1011.4 - 7.8
01/11:00pm 19.4 21.2 18.2 93 0.7 NW 6 9 3 5 1011.6 - 7.8
01/10:30pm 19.8 20.7 18.5 92 0.8 NW 11 15 6 8 1011.5 - 7.8
01/10:00pm 20.3 22.1 18.2 88 1.3 N 6 7 3 4 1011.5 - 7.8
01/09:30pm 21.1 23.1 19.2 89 1.2 NW 7 11 4 6 1011.6 - 7.8
01/09:00pm 21.6 23.6 19.9 90 1.1 NNW 9 15 5 8 1011.2 1011.2 7.8
01/08:30pm 21.9 22.6 19.6 87 1.5 N 15 20 8 11 1011.1 - 7.8
01/08:00pm 22.7 24.6 21.3 92 0.9 N 13 20 7 11 1011.5 - 7.6
01/07:30pm 22.7 23.3 21.3 92 0.9 NNE 20 28 11 15 1011.3 - 7.6
01/07:16pm 22.6 23.2 21.4 93 0.8 N 20 30 11 16 1010.5 - 7.6
01/07:00pm 22.9 23.2 21.5 92 0.9 NNE 22 30 12 16 1011.0 - 7.4
01/06:37pm 23.4 25.1 20.9 86 1.6 N 13 22 7 12 1012.3 - 2.8
01/06:30pm 23.7 25.4 21.0 85 1.8 NNE 13 22 7 12 1011.1 - 0.8
01/06:21pm 23.8 24.0 21.3 86 1.6 S 22 28 12 15 1010.8 - 0.6
01/06:14pm 23.4 22.9 20.7 85 1.8 N 24 43 13 23 1008.8 - 0.6
01/06:00pm 23.2 20.6 20.7 86 1.6 N 35 48 19 26 1006.5 1006.5 0.6
01/05:34pm 23.1 20.7 20.4 85 1.7 N 33 52 18 28 1007.7 - 0.4
01/05:30pm 23.2 20.5 20.5 85 1.8 N 35 52 19 28 1007.3 - 0.4
01/05:00pm 23.2 21.1 20.9 87 1.5 N 33 46 18 25 1007.6 - 0.4
01/04:30pm 23.3 23.0 20.4 84 1.9 N 22 30 12 16 1009.0 - 0.0
01/04:04pm 24.0 21.1 20.1 79 2.5 NE 35 44 19 24 1007.5 - 0.0
01/04:00pm 24.1 21.2 20.0 78 2.6 NE 35 44 19 24 1007.4 - 0.0
01/03:45pm 24.2 20.6 20.1 78 2.7 NNE 39 52 21 28 1007.6 - 0.0
01/03:30pm 24.2 20.8 19.9 77 2.8 NNE 37 48 20 26 1006.9 - 0.0
01/03:00pm 24.9 21.8 19.7 73 3.4 NNE 35 46 19 25 1007.2 1007.2 0.0
01/02:30pm 25.9 23.0 19.3 67 4.2 NNE 33 43 18 23 1008.0 - 0.0
01/02:00pm 27.7 25.0 20.5 65 4.7 NNE 35 44 19 24 1008.4 - 0.0
01/01:30pm 27.6 24.6 19.1 59 5.5 NNE 33 43 18 23 1008.7 - 0.0
01/01:00pm 27.6 24.4 19.4 61 5.3 NNE 35 43 19 23 1009.1 - 0.0
01/12:30pm 28.0 25.1 19.2 58 5.7 NNE 33 43 18 23 1009.6 - 0.0
01/12:00pm 27.9 25.3 19.4 60 5.5 NNE 32 41 17 22 1010.0 1010.0 0.0
01/11:30am 28.0 26.3 19.8 61 5.3 NNE 28 35 15 19 1010.6 - 0.0
01/11:00am 27.4 25.2 19.5 62 5.1 NNE 30 35 16 19 1011.3 - 0.0
01/10:30am 27.2 25.5 19.8 64 4.8 NNE 28 33 15 18 1011.7 - 0.0
01/10:00am 27.6 27.1 16.9 52 6.7 N 15 24 8 13 1012.2 - 0.0
01/09:30am 27.3 28.6 19.4 62 5.1 N 11 19 6 10 1012.2 - 0.0
01/09:00am 26.7 26.9 18.6 61 5.2 NNW 15 20 8 11 1012.4 1012.4 3.4
01/08:30am 25.4 26.3 20.0 72 3.5 NW 15 22 8 12 1012.4 - 3.4
01/08:00am 24.8 24.7 19.6 73 3.3 N 19 24 10 13 1012.4 - 3.4
01/07:30am 23.8 25.0 19.9 79 2.5 NNW 13 19 7 10 1012.2 - 3.4
01/07:00am 22.2 24.4 19.7 86 1.6 WNW 7 13 4 7 1012.1 - 3.4
01/06:30am 20.0 21.4 18.7 92 0.8 WNW 9 13 5 7 1011.8 - 3.4
01/06:00am 18.8 19.9 18.0 95 0.5 WNW 9 11 5 6 1011.8 1011.8 3.4
01/05:30am 17.7 18.8 17.1 96 0.4 W 7 11 4 6 1011.9 - 3.4
01/05:00am 17.1 17.6 16.6 97 0.3 WNW 9 11 5 6 1011.4 - 3.4
01/04:30am 17.1 18.0 16.6 97 0.3 W 7 9 4 5 1011.3 - 3.4
01/04:00am 17.2 17.8 16.7 97 0.3 WNW 9 11 5 6 1010.9 - 3.4
01/03:30am 17.5 18.2 17.0 97 0.3 WNW 9 11 5 6 1010.6 - 3.4
01/03:00am 17.8 18.2 17.3 97 0.3 WNW 11 13 6 7 1010.8 1010.8 3.4
01/02:30am 17.9 19.1 17.4 97 0.3 W 7 9 4 5 1011.2 - 3.4
01/02:10am 18.0 19.5 17.5 97 0.3 WSW 6 7 3 4 1011.2 - 3.4
01/02:00am 18.3 19.7 17.8 97 0.3 SW 7 7 4 4 1011.3 - 3.4
01/01:40am 18.1 19.4 17.6 97 0.3 WSW 7 9 4 5 1011.0 - 3.4
01/01:30am 18.1 19.4 17.6 97 0.3 W 7 9 4 5 1010.9 - 3.4
01/01:29am 18.1 19.4 17.6 97 0.3 W 7 9 4 5 1010.9 - 3.4
01/01:00am 18.3 19.3 17.8 97 0.3 WNW 9 11 5 6 1011.2 - 3.4
01/12:30am 18.4 19.1 17.9 97 0.3 W 11 13 6 7 1011.1 - 3.4
01/12:00am 18.6 19.7 17.9 96 0.4 WNW 9 11 5 6 1011.4 1011.4 3.4

Latest Capital City Observations: Canberra | Sydney | Melbourne | Brisbane | Adelaide | Perth | Hobart | Darwin

Other Formats:

Comma delimited format used in spreadsheet applications
http://www.bom.gov.au/fwo/IDQ60901/IDQ60901.94569.axf

JavaScript Object Notation format (JSON) in row-major order
http://www.bom.gov.au/fwo/IDQ60901/IDQ60901.94569.json